createdAt,value
2017-11-24T00:00:09.590Z,5
2017-11-24T00:10:10.581Z,12
2017-11-24T00:20:09.634Z,9
2017-11-24T00:30:09.523Z,10
2017-11-24T00:40:09.662Z,9
2017-11-24T00:50:09.590Z,12
2017-11-24T01:00:09.587Z,5
2017-11-24T01:10:10.381Z,11
2017-11-24T01:20:09.516Z,7
2017-11-24T01:30:09.622Z,6
2017-11-24T01:40:09.570Z,8
2017-11-24T01:50:09.639Z,5
2017-11-24T02:00:09.609Z,6
2017-11-24T02:10:09.696Z,9
2017-11-24T02:20:09.619Z,8
2017-11-24T02:30:09.700Z,12
2017-11-24T02:40:09.655Z,8
2017-11-24T02:50:09.738Z,13
2017-11-24T03:00:09.701Z,8
2017-11-24T03:10:09.656Z,5
2017-11-24T03:20:09.716Z,14
2017-11-24T03:30:09.773Z,8
2017-11-24T03:40:09.732Z,6
2017-11-24T03:50:09.683Z,7
2017-11-24T04:00:09.732Z,6
2017-11-24T04:10:09.701Z,8
2017-11-24T04:20:09.772Z,12
2017-11-24T04:30:09.759Z,10
2017-11-24T04:40:09.832Z,6
2017-11-24T04:50:09.737Z,7
2017-11-24T05:00:09.819Z,13
2017-11-24T05:10:09.806Z,10
2017-11-24T05:20:09.884Z,6
2017-11-24T05:30:09.779Z,13
2017-11-24T05:40:10.018Z,9
2017-11-24T05:50:09.829Z,10
2017-11-24T06:00:09.884Z,11
2017-11-24T06:10:09.853Z,13
2017-11-24T06:20:10.833Z,8
2017-11-24T06:30:09.920Z,9
2017-11-24T06:40:09.977Z,8
2017-11-24T06:50:10.357Z,6
2017-11-24T07:00:10.124Z,6
2017-11-24T07:10:09.985Z,16
2017-11-24T07:20:10.669Z,10
2017-11-24T07:30:10.041Z,10
2017-11-24T07:40:09.898Z,9
2017-11-24T07:50:09.916Z,9
2017-11-24T08:00:09.897Z,10
2017-11-24T08:10:09.900Z,9
2017-11-24T08:20:09.990Z,10
2017-11-24T08:30:09.863Z,6
2017-11-24T08:40:09.893Z,8
2017-11-24T08:50:09.935Z,10
2017-11-24T09:00:09.921Z,7
2017-11-24T09:10:10.055Z,11
2017-11-24T09:20:09.971Z,6
2017-11-24T09:30:09.980Z,9
2017-11-24T09:40:10.051Z,5
2017-11-24T09:50:10.065Z,5
2017-11-24T10:00:10.034Z,5
2017-11-24T10:10:10.090Z,5
2017-11-24T10:20:10.049Z,4
2017-11-24T10:30:10.078Z,5
2017-11-24T10:40:10.071Z,4
2017-11-24T10:50:10.098Z,8
2017-11-24T11:00:10.086Z,3
2017-11-24T11:10:10.144Z,6
2017-11-24T11:20:10.142Z,7
2017-11-24T11:30:10.076Z,6
2017-11-24T11:40:10.134Z,9
2017-11-24T11:50:10.144Z,7
2017-11-24T12:00:10.197Z,8
2017-11-24T12:10:10.177Z,7
2017-11-24T12:20:10.135Z,9
2017-11-24T12:30:10.175Z,7
2017-11-24T12:40:10.167Z,9
2017-11-24T12:50:10.179Z,8
2017-11-24T13:00:10.245Z,10
2017-11-24T13:10:10.185Z,6
2017-11-24T13:20:10.174Z,4
2017-11-24T13:30:10.264Z,5
2017-11-24T13:40:10.231Z,6
2017-11-24T13:50:10.209Z,6
2017-11-24T14:00:10.198Z,6
2017-11-24T14:10:10.241Z,8
2017-11-24T14:20:10.327Z,8
2017-11-24T14:30:10.218Z,10
2017-11-24T14:40:10.259Z,12
2017-11-24T14:50:10.294Z,11
2017-11-24T15:00:10.301Z,9
2017-11-24T15:10:10.323Z,13
2017-11-24T15:20:10.298Z,12
2017-11-24T15:30:10.359Z,13
2017-11-24T15:40:10.321Z,14
2017-11-24T15:50:10.302Z,14
2017-11-24T16:00:25.950Z,14
2017-11-24T16:10:10.388Z,14
2017-11-24T16:20:10.410Z,19
2017-11-24T16:30:10.464Z,15
2017-11-24T16:40:10.482Z,36
2017-11-24T16:50:10.382Z,17
2017-11-24T17:00:10.608Z,21
2017-11-24T17:10:10.474Z,21
2017-11-24T17:20:10.564Z,19
2017-11-24T17:30:10.461Z,22
2017-11-24T17:40:10.606Z,15
2017-11-24T17:50:11.085Z,16
2017-11-24T18:00:10.412Z,19
2017-11-24T18:10:10.469Z,19
2017-11-24T18:20:10.488Z,21
2017-11-24T18:30:10.483Z,27
2017-11-24T18:40:10.506Z,26
2017-11-24T18:50:10.481Z,24
2017-11-24T19:00:11.010Z,22
2017-11-24T19:10:10.503Z,26
2017-11-24T19:20:10.512Z,25
2017-11-24T19:30:10.800Z,25
2017-11-24T19:40:10.510Z,21
2017-11-24T19:50:11.005Z,27
2017-11-24T20:00:10.504Z,30
2017-11-24T20:10:10.697Z,36
2017-11-24T20:20:10.649Z,37
2017-11-24T20:30:10.726Z,34
2017-11-24T20:40:11.187Z,35
2017-11-24T20:50:11.804Z,38
2017-11-24T21:00:10.724Z,36
2017-11-24T21:10:10.765Z,33
2017-11-24T21:20:11.462Z,32
2017-11-24T21:30:11.378Z,31
2017-11-24T21:40:10.892Z,32
2017-11-24T21:50:10.880Z,30
2017-11-24T22:00:10.939Z,34
2017-11-24T22:10:11.019Z,32
2017-11-24T22:20:10.627Z,39
2017-11-24T22:30:10.605Z,33
2017-11-24T22:40:10.621Z,31
2017-11-24T22:50:10.742Z,31
2017-11-24T23:00:10.633Z,36
2017-11-24T23:10:10.647Z,33
2017-11-24T23:20:10.693Z,35
2017-11-24T23:30:10.877Z,36
2017-11-24T23:40:10.739Z,29
2017-11-24T23:50:10.681Z,33
